Time;durP1;ratioP1;P1;durP2;ratioP2;P2;SDS_P1;SDS_P2;PMS_P1;PMS_P2;Temp;Humidity;BMP_temperature;BMP_pressure;BME280_temperature;BME280_humidity;BME280_pressure;Samples;Min_cycle;Max_cycle;Signal;HPM_P1;HPM_P2
2023/11/15 00:00:49;;;;;;;36.53;7.00;;;13.80;99.90;;;;;;5042219;28;20025;-58
2023/11/15 00:03:16;;;;;;;31.92;7.55;;;13.70;99.90;;;;;;5046148;28;20032;-59
2023/11/15 00:05:44;;;;;;;26.73;5.78;;;13.70;99.90;;;;;;5047424;28;20040;-58
2023/11/15 00:08:10;;;;;;;30.38;5.97;;;13.70;99.90;;;;;;5048422;28;20100;-58
2023/11/15 00:10:35;;;;;;;32.83;6.10;;;13.60;99.90;;;;;;5041363;28;20041;-58
2023/11/15 00:13:01;;;;;;;25.38;5.75;;;13.60;99.90;;;;;;5048593;28;20033;-58
2023/11/15 00:15:26;;;;;;;29.90;6.65;;;13.50;99.90;;;;;;5048329;28;20498;-58
2023/11/15 00:17:52;;;;;;;32.05;6.55;;;13.50;99.90;;;;;;5048466;28;20112;-58
2023/11/15 00:20:18;;;;;;;28.75;5.65;;;13.50;99.90;;;;;;5042448;28;20037;-58
2023/11/15 00:22:44;;;;;;;30.77;6.18;;;13.50;99.90;;;;;;5048749;28;20030;-58
2023/11/15 00:25:09;;;;;;;28.02;4.85;;;13.50;99.90;;;;;;5030603;28;20041;-58
2023/11/15 00:27:35;;;;;;;27.90;5.18;;;13.50;99.90;;;;;;5047479;28;20044;-58
2023/11/15 00:30:02;;;;;;;17.50;4.72;;;13.50;99.90;;;;;;5044338;28;20029;-58
2023/11/15 00:32:27;;;;;;;23.38;5.13;;;13.50;99.90;;;;;;5048121;28;20013;-58
2023/11/15 00:34:53;;;;;;;26.98;4.50;;;13.50;99.90;;;;;;5048122;28;20056;-58
2023/11/15 00:37:18;;;;;;;25.55;4.75;;;13.50;99.90;;;;;;5042578;28;20018;-58
2023/11/15 00:39:47;;;;;;;20.13;4.80;;;13.40;99.90;;;;;;5047740;28;20125;-58
2023/11/15 00:42:13;;;;;;;20.77;4.55;;;13.40;99.90;;;;;;5030185;28;20036;-58
2023/11/15 00:44:38;;;;;;;24.88;4.57;;;13.40;99.90;;;;;;5046620;28;20037;-58
2023/11/15 00:47:05;;;;;;;20.33;4.60;;;13.40;99.90;;;;;;5043268;28;20055;-58
2023/11/15 00:49:31;;;;;;;22.27;4.40;;;13.40;99.90;;;;;;5046560;28;20506;-58
2023/11/15 00:51:57;;;;;;;21.45;4.70;;;13.40;99.90;;;;;;5047811;28;20036;-58
2023/11/15 00:54:23;;;;;;;19.80;3.80;;;13.30;99.90;;;;;;5047715;28;20026;-58
2023/11/15 00:56:49;;;;;;;11.30;3.50;;;13.30;99.90;;;;;;5042966;28;20072;-58
2023/11/15 00:59:16;;;;;;;13.80;4.30;;;13.30;99.90;;;;;;5046392;28;20388;-58
2023/11/15 01:01:43;;;;;;;15.50;3.72;;;13.30;99.90;;;;;;5046416;28;20029;-58
2023/11/15 01:04:10;;;;;;;23.33;4.57;;;13.30;99.90;;;;;;5045020;28;20029;-58
2023/11/15 01:06:36;;;;;;;14.32;3.53;;;13.30;99.90;;;;;;5043487;28;20056;-58
2023/11/15 01:09:03;;;;;;;14.15;3.13;;;13.20;99.90;;;;;;5046021;28;20049;-58
2023/11/15 01:11:28;;;;;;;22.75;3.55;;;13.20;99.90;;;;;;5047510;28;20025;-58
2023/11/15 01:13:54;;;;;;;12.90;3.53;;;13.30;99.90;;;;;;5040821;28;20566;-58
2023/11/15 01:16:23;;;;;;;11.50;3.22;;;13.20;99.90;;;;;;5009825;28;20022;-58
2023/11/15 01:18:49;;;;;;;19.88;3.72;;;13.20;99.90;;;;;;5027745;28;20061;-58
2023/11/15 01:21:17;;;;;;;13.82;3.33;;;13.20;99.90;;;;;;5025460;28;20051;-59
2023/11/15 01:23:43;;;;;;;13.50;3.05;;;13.10;99.90;;;;;;5033871;28;20044;-59
2023/11/15 01:26:09;;;;;;;14.15;3.30;;;13.10;99.90;;;;;;5047083;28;20022;-58
2023/11/15 01:28:35;;;;;;;13.15;2.92;;;13.10;99.90;;;;;;5046880;28;20068;-58
2023/11/15 01:31:00;;;;;;;12.35;2.60;;;13.10;99.90;;;;;;5047037;28;20041;-58
2023/11/15 01:33:26;;;;;;;11.13;2.75;;;13.10;99.90;;;;;;5043648;28;20029;-58
2023/11/15 01:35:52;;;;;;;12.18;2.97;;;13.10;99.90;;;;;;5047076;28;20029;-58
2023/11/15 01:38:18;;;;;;;10.48;3.10;;;13.10;99.90;;;;;;5046788;28;20021;-58
2023/11/15 01:40:43;;;;;;;14.70;2.58;;;13.00;99.90;;;;;;5043422;28;20089;-59
2023/11/15 01:43:10;;;;;;;10.35;2.47;;;13.10;99.90;;;;;;5044395;28;20029;-59
2023/11/15 01:45:36;;;;;;;9.98;2.65;;;13.00;99.90;;;;;;5045567;28;20040;-59
2023/11/15 01:48:01;;;;;;;12.75;2.60;;;13.10;99.90;;;;;;5045523;28;20033;-58
2023/11/15 01:50:27;;;;;;;13.05;2.92;;;13.00;99.90;;;;;;5041843;28;20040;-58
2023/11/15 01:52:52;;;;;;;8.15;2.40;;;13.00;99.90;;;;;;5045396;28;20021;-58
2023/11/15 01:55:21;;;;;;;10.55;2.30;;;13.00;99.90;;;;;;5045238;28;20037;-58
2023/11/15 01:57:47;;;;;;;12.05;2.15;;;13.00;99.90;;;;;;5045297;28;20068;-58
2023/11/15 02:00:14;;;;;;;8.02;2.30;;;12.90;99.90;;;;;;5040005;28;20037;-58
2023/11/15 02:02:39;;;;;;;10.95;2.15;;;13.00;99.90;;;;;;5045256;28;20021;-58
2023/11/15 02:05:05;;;;;;;7.60;2.17;;;13.00;99.90;;;;;;5045382;28;20044;-58
2023/11/15 02:07:31;;;;;;;7.05;1.80;;;12.90;99.90;;;;;;5046545;28;20048;-58
2023/11/15 02:09:57;;;;;;;7.57;1.92;;;12.90;99.90;;;;;;5041589;28;20041;-58
2023/11/15 02:12:22;;;;;;;6.72;2.10;;;12.90;99.90;;;;;;5045049;28;20136;-58
2023/11/15 02:14:48;;;;;;;7.25;2.00;;;12.80;99.90;;;;;;5045124;28;20033;-58
2023/11/15 02:17:13;;;;;;;6.20;1.92;;;12.80;99.90;;;;;;5042647;28;20474;-59
2023/11/15 02:19:39;;;;;;;8.07;2.00;;;12.80;99.90;;;;;;5040857;28;20029;-58
2023/11/15 02:22:05;;;;;;;5.70;1.98;;;12.80;99.90;;;;;;5028612;28;20034;-58
2023/11/15 02:24:31;;;;;;;5.78;1.60;;;12.80;99.90;;;;;;5044769;28;20064;-59
2023/11/15 02:26:56;;;;;;;10.90;2.20;;;12.80;99.90;;;;;;5039426;28;20109;-59
2023/11/15 02:29:22;;;;;;;6.03;1.88;;;12.80;99.90;;;;;;5063261;28;20029;-58
2023/11/15 02:31:47;;;;;;;8.32;1.88;;;12.80;99.90;;;;;;5050214;28;20028;-58
2023/11/15 02:34:13;;;;;;;4.93;1.73;;;12.80;99.90;;;;;;5072687;28;20025;-58
2023/11/15 02:36:39;;;;;;;6.88;1.70;;;12.70;99.90;;;;;;5054476;28;20465;-58
2023/11/15 02:39:06;;;;;;;8.95;1.50;;;12.70;99.90;;;;;;5052829;28;20046;-58
2023/11/15 02:41:32;;;;;;;6.72;1.52;;;12.70;99.90;;;;;;5051409;28;20039;-57
2023/11/15 02:43:57;;;;;;;6.57;1.80;;;12.70;99.90;;;;;;5051523;28;20085;-58
2023/11/15 02:46:23;;;;;;;5.82;1.50;;;12.60;99.90;;;;;;5046062;28;20025;-58
2023/11/15 02:48:49;;;;;;;6.57;1.70;;;12.70;99.90;;;;;;5052568;28;20087;-58
2023/11/15 02:51:15;;;;;;;7.05;1.90;;;12.60;99.90;;;;;;5052739;28;20033;-58
2023/11/15 02:53:40;;;;;;;6.53;1.27;;;12.60;99.90;;;;;;5049091;28;20113;-58
2023/11/15 02:56:06;;;;;;;3.72;1.58;;;12.60;99.90;;;;;;5051168;28;20036;-58
2023/11/15 02:58:32;;;;;;;6.18;1.38;;;12.60;99.90;;;;;;5052453;28;20022;-58
2023/11/15 03:00:58;;;;;;;4.10;1.35;;;12.60;99.90;;;;;;5051333;28;20042;-58
2023/11/15 03:03:23;;;;;;;7.13;1.90;;;12.60;99.90;;;;;;5047061;28;20014;-58
2023/11/15 03:05:49;;;;;;;5.35;1.35;;;12.60;99.90;;;;;;5052501;28;20017;-58
2023/11/15 03:08:16;;;;;;;4.60;1.52;;;12.60;99.90;;;;;;5051202;28;20045;-58
2023/11/15 03:10:46;;;;;;;3.40;1.40;;;12.50;99.90;;;;;;5051013;28;20025;-58
2023/11/15 03:13:11;;;;;;;4.35;1.42;;;12.60;99.90;;;;;;5045387;28;20104;-58
2023/11/15 03:15:37;;;;;;;2.78;1.30;;;12.60;99.90;;;;;;5052198;28;20033;-58
2023/11/15 03:18:03;;;;;;;3.65;1.08;;;12.60;99.90;;;;;;5052266;28;20024;-58
2023/11/15 03:20:30;;;;;;;6.95;1.20;;;12.60;99.90;;;;;;5051149;28;20033;-59
2023/11/15 03:22:56;;;;;;;4.32;1.30;;;12.60;99.90;;;;;;5045513;28;20048;-59
2023/11/15 03:25:22;;;;;;;10.90;1.50;;;12.50;99.90;;;;;;5050840;28;20037;-58
2023/11/15 03:27:48;;;;;;;5.13;1.40;;;12.50;99.90;;;;;;5051170;28;20394;-58
2023/11/15 03:30:15;;;;;;;4.47;1.10;;;12.50;99.90;;;;;;5049528;28;20397;-58
2023/11/15 03:32:41;;;;;;;4.63;1.42;;;12.50;99.90;;;;;;5049411;28;20030;-58
2023/11/15 03:35:07;;;;;;;5.45;1.23;;;12.50;99.90;;;;;;5051035;28;20025;-58
2023/11/15 03:37:33;;;;;;;3.80;0.98;;;12.50;99.90;;;;;;5052734;28;20040;-58
2023/11/15 03:39:58;;;;;;;2.67;1.17;;;12.50;99.90;;;;;;5047557;28;20029;-58
2023/11/15 03:42:24;;;;;;;3.92;1.20;;;12.50;99.90;;;;;;5051023;28;20025;-58
2023/11/15 03:44:50;;;;;;;3.92;1.33;;;12.40;99.90;;;;;;5048368;28;20036;-58
2023/11/15 03:47:15;;;;;;;5.40;1.33;;;12.50;99.90;;;;;;5049177;28;20029;-58
2023/11/15 03:49:41;;;;;;;3.53;1.20;;;12.50;99.90;;;;;;5045615;28;20044;-58
2023/11/15 03:52:07;;;;;;;3.90;1.25;;;12.40;99.90;;;;;;5047783;28;20044;-58
2023/11/15 03:54:32;;;;;;;5.15;1.50;;;12.50;99.90;;;;;;5047527;28;20049;-58
2023/11/15 03:56:58;;;;;;;3.55;1.30;;;12.50;99.90;;;;;;5049201;28;20018;-59
2023/11/15 03:59:24;;;;;;;1.92;1.10;;;12.40;99.90;;;;;;5042822;28;20124;-58
2023/11/15 04:01:50;;;;;;;5.22;1.38;;;12.40;99.90;;;;;;5031309;28;20051;-58
2023/11/15 04:04:15;;;;;;;4.30;1.30;;;12.50;99.90;;;;;;5048796;28;20144;-58
2023/11/15 04:06:41;;;;;;;2.95;1.02;;;12.40;99.90;;;;;;5044963;28;20030;-59
2023/11/15 04:09:07;;;;;;;2.78;1.02;;;12.40;99.90;;;;;;5046253;28;20037;-58
2023/11/15 04:11:37;;;;;;;4.45;1.40;;;12.40;99.90;;;;;;5047538;28;20092;-58
2023/11/15 04:14:03;;;;;;;2.33;1.20;;;12.40;99.90;;;;;;5047272;28;20061;-58
2023/11/15 04:16:28;;;;;;;4.15;1.20;;;12.40;99.90;;;;;;5041818;28;20029;-58
2023/11/15 04:18:54;;;;;;;3.85;1.10;;;12.40;99.90;;;;;;5047304;28;20059;-58
2023/11/15 04:21:19;;;;;;;3.20;1.10;;;12.40;99.90;;;;;;5048460;28;20034;-58
2023/11/15 04:23:45;;;;;;;5.82;1.50;;;12.50;99.90;;;;;;5047039;28;20037;-58
2023/11/15 04:26:11;;;;;;;4.28;1.35;;;12.40;99.90;;;;;;5041385;28;20025;-58
2023/11/15 04:28:36;;;;;;;3.35;1.02;;;12.40;99.90;;;;;;5047859;28;20036;-58
2023/11/15 04:31:02;;;;;;;4.15;1.27;;;12.40;99.90;;;;;;5047379;28;20022;-58
2023/11/15 04:33:28;;;;;;;4.43;1.50;;;12.40;99.90;;;;;;5048340;28;20509;-58
2023/11/15 04:35:54;;;;;;;3.10;1.25;;;12.40;99.90;;;;;;5041177;28;20048;-58
2023/11/15 04:38:19;;;;;;;2.35;1.05;;;12.40;99.90;;;;;;5046900;28;20464;-58
2023/11/15 04:40:45;;;;;;;2.20;1.00;;;12.40;99.90;;;;;;5047902;28;20377;-58
2023/11/15 04:43:10;;;;;;;4.82;1.23;;;12.40;99.90;;;;;;5044450;28;20028;-58
2023/11/15 04:45:37;;;;;;;4.22;1.30;;;12.40;99.90;;;;;;5044950;28;20033;-58
2023/11/15 04:48:03;;;;;;;2.15;0.80;;;12.40;99.90;;;;;;5046446;28;20025;-58
2023/11/15 04:50:28;;;;;;;4.97;1.35;;;12.40;99.90;;;;;;5046276;28;20117;-58
2023/11/15 04:52:54;;;;;;;2.33;1.02;;;12.40;99.90;;;;;;5027423;28;20033;-58
2023/11/15 04:55:20;;;;;;;1.80;0.88;;;12.40;99.90;;;;;;5046319;28;20040;-58
2023/11/15 04:57:46;;;;;;;2.88;0.85;;;12.40;99.90;;;;;;5046733;28;20057;-58
2023/11/15 05:00:12;;;;;;;3.78;1.20;;;12.40;99.90;;;;;;5046304;28;20137;-58
2023/11/15 05:02:37;;;;;;;2.53;0.98;;;12.40;99.90;;;;;;5040529;28;20089;-58
2023/11/15 05:05:04;;;;;;;4.18;1.25;;;12.40;99.90;;;;;;5047468;28;20040;-58
2023/11/15 05:07:35;;;;;;;3.05;1.17;;;12.40;99.90;;;;;;5047531;28;20156;-58
2023/11/15 05:10:05;;;;;;;3.35;1.30;;;12.40;99.90;;;;;;5046224;28;20034;-58
2023/11/15 05:12:31;;;;;;;4.05;1.00;;;12.40;99.90;;;;;;5042762;28;20091;-58
2023/11/15 05:14:57;;;;;;;4.75;1.20;;;12.40;99.90;;;;;;5047390;28;20029;-58
2023/11/15 05:17:22;;;;;;;2.92;1.25;;;12.40;99.90;;;;;;5046064;28;20018;-58
2023/11/15 05:19:48;;;;;;;1.63;0.82;;;12.40;99.90;;;;;;5044739;28;20026;-58
2023/11/15 05:22:13;;;;;;;3.80;1.40;;;12.40;99.90;;;;;;5045144;28;20026;-58
2023/11/15 05:24:39;;;;;;;2.75;1.15;;;12.40;99.90;;;;;;5047779;28;20091;-58
2023/11/15 05:27:05;;;;;;;3.65;1.30;;;12.40;99.90;;;;;;5047085;28;20030;-55
2023/11/15 05:29:31;;;;;;;3.08;1.20;;;12.40;99.90;;;;;;5042889;28;20026;-57
2023/11/15 05:31:56;;;;;;;4.28;1.17;;;12.40;99.90;;;;;;5047491;28;20032;-58
2023/11/15 05:34:22;;;;;;;3.97;1.02;;;12.40;99.90;;;;;;5043727;28;20359;-58
2023/11/15 05:36:47;;;;;;;4.72;1.10;;;12.40;99.90;;;;;;5044907;28;20029;-58
2023/11/15 05:39:13;;;;;;;5.80;1.20;;;12.40;99.90;;;;;;5039421;28;20593;-58
2023/11/15 05:41:39;;;;;;;4.05;1.15;;;12.40;99.90;;;;;;5041486;28;20032;-58
2023/11/15 05:44:05;;;;;;;2.92;1.10;;;12.40;99.90;;;;;;5043947;28;20091;-58
2023/11/15 05:46:30;;;;;;;4.93;1.00;;;12.40;99.90;;;;;;5043516;28;20021;-58
2023/11/15 05:48:56;;;;;;;2.95;1.10;;;12.40;99.90;;;;;;5038799;28;20040;-58
2023/11/15 05:51:22;;;;;;;4.15;1.08;;;12.40;99.90;;;;;;5045013;28;20028;-58
2023/11/15 05:53:47;;;;;;;6.13;1.38;;;12.40;99.90;;;;;;5044918;28;20052;-58
2023/11/15 05:56:13;;;;;;;2.88;1.35;;;12.40;99.90;;;;;;5025302;28;20018;-58
2023/11/15 05:58:38;;;;;;;4.38;1.40;;;12.40;99.90;;;;;;5044414;28;20037;-58
2023/11/15 06:01:04;;;;;;;1.75;1.10;;;12.40;99.90;;;;;;5046421;28;20049;-57
2023/11/15 06:03:29;;;;;;;4.60;1.33;;;12.40;99.90;;;;;;5045204;28;20108;-58
2023/11/15 06:05:55;;;;;;;5.43;1.42;;;12.40;99.90;;;;;;5039796;28;20025;-58
2023/11/15 06:08:20;;;;;;;3.78;1.00;;;12.40;99.90;;;;;;5029151;28;20478;-58
2023/11/15 06:10:49;;;;;;;3.20;1.15;;;12.30;99.90;;;;;;5025104;28;20053;-58
2023/11/15 06:13:17;;;;;;;5.25;1.25;;;12.40;99.90;;;;;;5044615;28;20044;-57
2023/11/15 06:15:43;;;;;;;4.82;1.52;;;12.40;99.90;;;;;;5044524;28;20021;-58
2023/11/15 06:18:10;;;;;;;7.00;1.63;;;12.40;99.90;;;;;;5028161;28;20028;-58
2023/11/15 06:20:38;;;;;;;7.70;1.70;;;12.30;99.90;;;;;;5046035;28;20037;-58
2023/11/15 06:23:04;;;;;;;9.75;1.70;;;12.30;99.90;;;;;;5044077;28;20029;-58
2023/11/15 06:25:30;;;;;;;9.45;2.10;;;12.30;99.90;;;;;;5043695;28;20041;-58
2023/11/15 06:27:55;;;;;;;10.18;2.03;;;12.40;99.90;;;;;;5026864;28;20519;-58
2023/11/15 06:30:21;;;;;;;9.73;2.40;;;12.40;99.90;;;;;;5046123;28;20040;-58
2023/11/15 06:32:48;;;;;;;17.15;2.72;;;12.40;99.90;;;;;;5027212;28;20052;-58
2023/11/15 06:35:18;;;;;;;32.22;3.05;;;12.40;99.90;;;;;;5044359;28;20029;-58
2023/11/15 06:37:47;;;;;;;20.05;2.95;;;12.40;99.90;;;;;;5044930;28;20045;-58
2023/11/15 06:40:14;;;;;;;18.95;3.13;;;12.30;99.90;;;;;;5046088;28;20034;-58
2023/11/15 06:42:39;;;;;;;23.50;3.67;;;12.30;99.90;;;;;;5045996;28;20030;-58
2023/11/15 06:45:05;;;;;;;36.90;5.47;;;12.30;99.90;;;;;;5044763;28;20041;-58
2023/11/15 06:47:31;;;;;;;43.75;6.28;;;12.30;99.90;;;;;;5044538;28;20021;-58
2023/11/15 06:49:57;;;;;;;48.88;7.93;;;12.30;99.90;;;;;;5045864;28;20037;-58
2023/11/15 06:52:25;;;;;;;67.38;8.98;;;12.30;99.90;;;;;;5044649;28;20025;-58
2023/11/15 06:54:52;;;;;;;77.20;9.48;;;12.30;99.90;;;;;;5044368;28;20029;-58
2023/11/15 06:57:19;;;;;;;111.60;14.45;;;12.30;99.90;;;;;;5044776;28;20037;-58
2023/11/15 06:59:47;;;;;;;109.65;18.65;;;12.30;99.90;;;;;;5044180;28;20224;-58
2023/11/15 07:02:13;;;;;;;105.63;16.52;;;12.30;99.90;;;;;;5040646;28;20075;-58
2023/11/15 07:04:41;;;;;;;94.38;13.50;;;12.30;99.90;;;;;;5034958;28;20030;-58
2023/11/15 07:07:06;;;;;;;44.75;7.18;;;12.40;99.90;;;;;;5038332;28;20128;-58
2023/11/15 07:09:32;;;;;;;49.15;6.45;;;12.40;99.90;;;;;;5053874;28;20064;-58
2023/11/15 07:11:57;;;;;;;56.45;7.75;;;12.40;99.90;;;;;;5050689;28;20026;-58
2023/11/15 07:14:24;;;;;;;64.40;9.15;;;12.40;99.90;;;;;;5033085;28;20488;-58
2023/11/15 07:16:58;;;;;;;124.95;14.50;;;12.30;99.90;;;;;;5037352;28;20040;-57
2023/11/15 07:19:27;;;;;;;118.07;17.45;;;12.40;99.90;;;;;;5038839;28;20056;-57
2023/11/15 07:21:53;;;;;;;105.00;13.93;;;12.30;99.90;;;;;;5043319;28;20043;-58
2023/11/15 07:24:19;;;;;;;140.60;17.90;;;12.30;99.90;;;;;;5033065;28;20497;-58
2023/11/15 07:26:45;;;;;;;189.38;24.80;;;12.30;99.90;;;;;;5041743;28;20030;-58
2023/11/15 07:29:12;;;;;;;168.32;23.58;;;12.40;99.90;;;;;;5044498;28;20188;-58
2023/11/15 07:31:40;;;;;;;141.73;17.58;;;12.40;99.90;;;;;;5046415;28;20032;-57
2023/11/15 07:34:08;;;;;;;148.43;20.30;;;12.30;99.90;;;;;;5040048;28;20037;-58
2023/11/15 07:36:33;;;;;;;145.90;16.75;;;12.30;99.90;;;;;;5040471;28;20034;-58
2023/11/15 07:39:01;;;;;;;109.97;15.65;;;12.30;99.90;;;;;;5044943;28;20362;-58
2023/11/15 07:41:26;;;;;;;128.13;17.88;;;12.30;99.90;;;;;;5059347;28;20021;-58
2023/11/15 07:43:58;;;;;;;204.63;25.67;;;12.30;99.90;;;;;;5046845;28;20401;-58
2023/11/15 07:46:24;;;;;;;178.48;25.52;;;12.30;99.90;;;;;;5047967;28;20038;-57
2023/11/15 07:48:53;;;;;;;168.32;20.60;;;12.30;99.90;;;;;;5046340;28;20033;-57
2023/11/15 07:51:18;;;;;;;151.25;18.23;;;12.40;99.90;;;;;;5047492;28;20018;-57
2023/11/15 07:53:49;;;;;;;99.85;13.93;;;12.40;99.90;;;;;;5032643;28;20037;-57
2023/11/15 07:56:19;;;;;;;195.98;20.38;;;12.40;99.90;;;;;;5043299;28;20045;-58
2023/11/15 07:58:50;;;;;;;182.00;20.50;;;12.30;99.90;;;;;;5040827;28;20056;-58
2023/11/15 08:01:15;;;;;;;146.32;18.75;;;12.40;99.90;;;;;;5033517;28;20045;-58
2023/11/15 08:03:41;;;;;;;129.13;18.05;;;12.30;99.90;;;;;;5045723;28;20056;-58
2023/11/15 08:06:10;;;;;;;133.25;15.77;;;12.30;99.90;;;;;;5037677;28;20081;-57
2023/11/15 08:08:36;;;;;;;93.38;16.02;;;12.40;99.90;;;;;;5032243;28;20049;-58
2023/11/15 08:11:03;;;;;;;118.80;14.75;;;12.30;99.90;;;;;;5068322;28;20045;-57
2023/11/15 08:13:29;;;;;;;127.00;15.10;;;12.30;99.90;;;;;;5056966;28;20014;-58
2023/11/15 08:15:56;;;;;;;158.95;18.20;;;12.30;99.90;;;;;;5044971;28;20051;-57
2023/11/15 08:18:22;;;;;;;161.50;18.30;;;12.30;99.90;;;;;;5050090;28;20044;-57
2023/11/15 08:20:48;;;;;;;144.50;19.13;;;12.30;99.90;;;;;;5049537;28;20072;-57
2023/11/15 08:23:13;;;;;;;159.50;18.63;;;12.30;99.90;;;;;;5034535;28;20474;-57
2023/11/15 08:25:47;;;;;;;177.27;21.42;;;12.40;99.90;;;;;;5051586;28;21151;-57
2023/11/15 08:28:15;;;;;;;153.48;19.67;;;12.30;99.90;;;;;;5033352;28;20033;-58
2023/11/15 08:30:41;;;;;;;155.23;19.23;;;12.40;99.90;;;;;;5043943;28;20042;-58
2023/11/15 08:33:07;;;;;;;233.98;26.92;;;12.40;99.90;;;;;;5052359;28;20071;-57
2023/11/15 08:35:32;;;;;;;172.15;19.90;;;12.40;99.90;;;;;;5051667;28;20038;-57
2023/11/15 08:37:58;;;;;;;241.98;31.55;;;12.40;99.90;;;;;;5050497;28;20102;-57
2023/11/15 08:40:25;;;;;;;232.25;31.90;;;12.50;99.90;;;;;;5049326;28;20076;-58
2023/11/15 08:42:51;;;;;;;136.38;18.33;;;12.50;99.90;;;;;;5044746;28;20079;-57
2023/11/15 08:45:18;;;;;;;145.68;18.80;;;12.50;99.90;;;;;;5057887;28;20100;-58
2023/11/15 08:47:43;;;;;;;184.80;20.25;;;12.50;99.90;;;;;;5046201;28;20108;-57
2023/11/15 08:50:09;;;;;;;109.80;15.15;;;12.60;99.90;;;;;;5035622;28;20057;-58
2023/11/15 08:52:40;;;;;;;106.45;15.00;;;12.50;99.90;;;;;;5042961;28;20437;-58
2023/11/15 08:55:08;;;;;;;92.20;12.73;;;12.60;99.90;;;;;;5029592;28;20041;-58
2023/11/15 08:57:34;;;;;;;95.90;13.88;;;12.50;99.90;;;;;;5046162;28;20025;-58
2023/11/15 09:00:00;;;;;;;75.40;12.98;;;12.60;99.90;;;;;;5046955;28;20497;-58
2023/11/15 09:02:26;;;;;;;90.30;12.93;;;12.60;99.90;;;;;;5061126;28;20032;-58
2023/11/15 09:04:53;;;;;;;64.68;10.68;;;12.60;99.90;;;;;;5056159;28;20036;-57
2023/11/15 09:07:19;;;;;;;63.30;10.50;;;12.60;99.90;;;;;;5040391;28;20029;-57
2023/11/15 09:09:46;;;;;;;38.47;8.07;;;12.60;99.90;;;;;;5038630;28;20049;-58
2023/11/15 09:12:12;;;;;;;65.50;8.85;;;12.60;99.90;;;;;;5038956;28;20459;-58
2023/11/15 09:14:38;;;;;;;66.55;10.30;;;12.60;99.90;;;;;;5022767;28;20067;-58
2023/11/15 09:17:05;;;;;;;65.13;12.00;;;12.60;99.90;;;;;;5040809;28;20025;-58
2023/11/15 09:19:34;;;;;;;113.22;15.27;;;12.70;99.90;;;;;;5049530;28;20111;-58
2023/11/15 09:22:05;;;;;;;111.97;15.25;;;12.70;99.90;;;;;;5043666;28;20029;-58
2023/11/15 09:24:31;;;;;;;136.02;18.27;;;12.70;99.90;;;;;;5027084;28;20041;-57
2023/11/15 09:26:56;;;;;;;134.55;16.45;;;12.70;99.90;;;;;;5033948;28;20049;-58
2023/11/15 09:29:23;;;;;;;102.50;13.25;;;12.70;99.90;;;;;;5040174;28;20021;-57
2023/11/15 09:31:49;;;;;;;87.72;12.48;;;12.70;99.90;;;;;;5037551;28;20022;-57
2023/11/15 09:34:16;;;;;;;86.10;12.82;;;12.80;99.90;;;;;;5038756;28;20036;-57
2023/11/15 09:36:45;;;;;;;84.30;12.18;;;12.80;99.90;;;;;;5042759;28;20054;-57
2023/11/15 09:39:10;;;;;;;64.28;10.23;;;12.80;99.90;;;;;;5046603;28;20033;-57
2023/11/15 09:41:36;;;;;;;116.88;12.00;;;12.80;99.90;;;;;;5056432;28;20035;-55
2023/11/15 09:44:18;;;;;;;56.58;8.70;;;12.80;99.90;;;;;;5054157;28;20033;-57
2023/11/15 09:46:45;;;;;;;38.35;7.43;;;12.80;99.90;;;;;;5044416;28;20542;-57
2023/11/15 09:49:14;;;;;;;68.28;9.30;;;12.80;99.90;;;;;;5043464;28;20037;-57
2023/11/15 09:51:40;;;;;;;64.88;9.85;;;12.80;99.90;;;;;;5044222;28;20025;-57
2023/11/15 09:54:06;;;;;;;57.33;8.82;;;12.80;99.90;;;;;;5042995;28;20465;-57
2023/11/15 09:56:35;;;;;;;53.28;9.57;;;12.80;99.90;;;;;;5044444;28;20018;-57
2023/11/15 09:59:00;;;;;;;60.13;8.27;;;12.80;99.90;;;;;;5045172;28;20057;-58
2023/11/15 10:01:29;;;;;;;87.15;10.50;;;12.80;99.90;;;;;;5045495;28;20026;-58
2023/11/15 10:03:55;;;;;;;76.63;11.05;;;12.80;99.90;;;;;;5043971;28;20508;-56
2023/11/15 10:06:23;;;;;;;46.38;7.68;;;12.80;99.90;;;;;;5025814;28;20056;-57
2023/11/15 10:08:52;;;;;;;40.58;6.30;;;12.90;99.90;;;;;;5046024;28;20026;-58
2023/11/15 10:11:18;;;;;;;55.35;7.38;;;12.90;99.90;;;;;;5043250;28;20021;-57
2023/11/15 10:13:44;;;;;;;64.22;9.13;;;12.90;99.90;;;;;;5044804;28;20378;-57
2023/11/15 10:16:23;;;;;;;54.45;8.73;;;12.90;99.90;;;;;;5045081;28;20025;-57
2023/11/15 10:18:48;;;;;;;77.32;8.82;;;12.90;99.90;;;;;;5044673;28;20037;-58
2023/11/15 10:21:14;;;;;;;89.55;8.82;;;12.90;99.90;;;;;;5043111;28;20404;-58
2023/11/15 10:23:40;;;;;;;88.60;10.13;;;12.90;99.90;;;;;;5042462;28;20048;-58
2023/11/15 10:26:05;;;;;;;61.97;7.93;;;12.90;99.90;;;;;;5043821;28;20386;-57
2023/11/15 10:28:39;;;;;;;44.53;6.85;;;12.90;99.90;;;;;;5044276;28;20025;-58
2023/11/15 10:31:18;;;;;;;41.33;6.82;;;12.90;99.90;;;;;;5041911;28;20037;-58
2023/11/15 10:33:52;;;;;;;28.95;4.25;;;12.90;99.90;;;;;;5044232;28;20509;-57
2023/11/15 10:36:22;;;;;;;29.08;3.80;;;12.90;99.90;;;;;;5042283;28;20470;-58
2023/11/15 10:38:55;;;;;;;29.02;4.43;;;12.90;99.90;;;;;;5043847;28;20022;-58
2023/11/15 10:41:22;;;;;;;27.70;3.60;;;12.80;99.90;;;;;;5043126;28;20068;-58
2023/11/15 10:43:49;;;;;;;43.40;6.32;;;12.80;99.90;;;;;;5043906;28;20055;-58
2023/11/15 10:46:15;;;;;;;28.00;4.15;;;12.80;99.90;;;;;;5041417;28;20025;-58
2023/11/15 10:48:43;;;;;;;27.08;4.35;;;12.80;99.90;;;;;;5041477;28;20101;-58
2023/11/15 10:51:13;;;;;;;19.20;3.60;;;12.90;99.90;;;;;;5043320;28;20033;-58
2023/11/15 10:53:43;;;;;;;38.00;4.00;;;12.80;99.90;;;;;;5045644;28;20025;-58
2023/11/15 10:56:11;;;;;;;22.95;2.83;;;12.80;99.90;;;;;;5047727;28;20052;-59
2023/11/15 10:58:39;;;;;;;18.55;3.35;;;12.80;99.90;;;;;;5046084;28;20059;-57
2023/11/15 11:01:06;;;;;;;19.88;3.03;;;12.70;99.90;;;;;;5033546;28;20042;-58
2023/11/15 11:03:32;;;;;;;11.57;1.90;;;12.80;99.90;;;;;;5030024;28;20048;-57
2023/11/15 11:06:03;;;;;;;11.50;2.20;;;12.70;99.90;;;;;;5046876;28;20029;-58
2023/11/15 11:08:54;;;;;;;11.75;2.08;;;12.80;99.90;;;;;;5031267;28;20436;-58
2023/11/15 11:11:40;;;;;;;10.85;1.98;;;12.70;99.90;;;;;;5040943;28;20442;-58
2023/11/15 11:14:25;;;;;;;9.95;1.73;;;12.70;99.90;;;;;;5035719;28;20028;-58
2023/11/15 11:16:52;;;;;;;4.90;1.60;;;12.70;99.90;;;;;;5049965;28;20036;-58
2023/11/15 11:19:21;;;;;;;11.80;1.90;;;12.70;99.90;;;;;;5046069;28;20029;-58
2023/11/15 11:22:02;;;;;;;4.68;1.30;;;12.80;99.90;;;;;;5055613;28;20443;-58
2023/11/15 11:24:34;;;;;;;23.30;3.30;;;12.80;99.90;;;;;;5048479;28;20040;-58
2023/11/15 11:27:13;;;;;;;13.10;1.65;;;12.80;99.90;;;;;;5046988;28;20026;-58
2023/11/15 11:29:51;;;;;;;11.65;1.58;;;12.90;99.90;;;;;;5049133;28;20029;-58
2023/11/15 11:32:19;;;;;;;10.85;1.55;;;12.90;99.90;;;;;;5050518;28;20021;-58
2023/11/15 11:35:04;;;;;;;4.65;1.42;;;12.90;99.90;;;;;;5048976;28;20033;-58
2023/11/15 11:38:17;;;;;;;2.47;1.23;;;12.90;99.90;;;;;;5049728;28;20032;-59
2023/11/15 11:40:38;;;;;;;16.38;1.95;;;12.90;99.90;;;;;;5046105;28;20037;-58
2023/11/15 11:43:22;;;;;;;4.72;1.00;;;12.90;99.90;;;;;;5049886;28;20025;-58
2023/11/15 11:45:52;;;;;;;6.95;1.40;;;12.90;99.90;;;;;;5040289;28;20029;-58
2023/11/15 11:48:24;;;;;;;3.42;1.10;;;13.00;99.90;;;;;;5048587;28;20029;-58
2023/11/15 11:50:58;;;;;;;3.33;0.80;;;12.90;99.90;;;;;;5046896;28;20076;-58
2023/11/15 11:53:24;;;;;;;3.28;0.90;;;12.90;99.90;;;;;;5052331;28;20021;-59
2023/11/15 11:55:54;;;;;;;3.58;0.93;;;12.90;99.90;;;;;;5039468;28;20472;-58
2023/11/15 11:58:20;;;;;;;4.22;0.90;;;12.90;99.90;;;;;;5047467;28;20033;-58
2023/11/15 12:00:48;;;;;;;3.30;0.90;;;12.90;99.90;;;;;;5036010;28;20493;-58
2023/11/15 12:03:16;;;;;;;2.03;0.70;;;12.90;99.90;;;;;;5047045;28;20021;-58
2023/11/15 12:05:43;;;;;;;4.00;0.77;;;12.80;99.90;;;;;;5046483;28;20021;-58
2023/11/15 12:08:08;;;;;;;4.28;0.80;;;12.80;99.90;;;;;;5054133;28;20331;-58
2023/11/15 12:10:34;;;;;;;3.60;0.82;;;12.80;99.90;;;;;;5058716;28;20025;-58
2023/11/15 12:13:04;;;;;;;2.53;1.10;;;12.90;99.90;;;;;;5049011;28;20035;-57
2023/11/15 12:15:30;;;;;;;5.88;1.02;;;12.90;99.90;;;;;;5062044;28;20026;-58
2023/11/15 12:17:59;;;;;;;9.38;1.10;;;12.90;99.90;;;;;;5035174;28;20075;-59
2023/11/15 12:20:38;;;;;;;13.38;2.35;;;12.90;99.90;;;;;;5050284;28;20032;-58
2023/11/15 12:23:12;;;;;;;54.97;4.82;;;12.90;99.90;;;;;;5048129;28;20040;-58
2023/11/15 12:25:48;;;;;;;15.20;2.50;;;13.00;99.90;;;;;;5035596;28;20065;-59
2023/11/15 12:28:14;;;;;;;16.58;1.83;;;13.00;99.90;;;;;;5055910;28;20052;-58
2023/11/15 12:30:40;;;;;;;8.25;2.38;;;13.10;99.90;;;;;;5057588;28;20024;-59
2023/11/15 12:33:06;;;;;;;48.30;7.35;;;13.10;99.90;;;;;;5044218;28;20033;-58
2023/11/15 12:35:36;;;;;;;98.57;14.40;;;13.10;99.90;;;;;;5046307;28;20025;-59
2023/11/15 12:38:05;;;;;;;48.60;8.85;;;13.10;99.90;;;;;;5054624;28;20025;-58